PWSweather.com
Personal Weather Stations
Station Observations
ARECO747
Argentina , San Antonio ArecoAR Bs.As

Argentina San Antonio ArecoAR Bs.As

Lat: -34.24447275818, Lon: -59.47654187679

Elevation: 102

Station Type: InformaciĆ³n generada con nuevo Microchip Ethernet conectado a estaciĆ³n WH1081

http://www.meteostar.com.ar

High Low Average
Temperature 91.9°F33.3°C 59.9°F15.5°C 76.2°F24.6°C
Dew Point 64.0°F17.8°C 54.1°F12.3°C 58.9°F14.9°C
Winds 7.6 mph 12.2 kmh Calm Calm 2.0 mph S3.2 kmh S
Wind Gusts 12.1 mph19.5 kmh -- 4.0 mph6.4 kmh
Humidity 82% 34% 58%
Pressure 29.84 in1010.5 mb 29.72 in1006.4 mb -
Precipitation 0.00 in0.0 mm - -
Hour Temp Dew Point Humidity Winds Wind Gusts Pressure Precip Precip Rate Daily Precip Total
12:03 AM 65.1°F18.4°C 57.4°F14.1°C 76% 0.7 mph WSW1.1 kmh WSW 3.1 mph5.0 kmh 29.75 in1007.5 mb 0.00 in0.0 mm 0.00 in0.0 mm 0.00 in0.0 mm
12:08 AM 65.1°F18.4°C 57.7°F14.3°C 77% 1.6 mph SW2.6 kmh SW 2.2 mph3.5 kmh 29.75 in1007.5 mb 0.00 in0.0 mm 0.00 in0.0 mm 0.00 in0.0 mm
12:13 AM 65.1°F18.4°C 57.7°F14.3°C 77% 0.7 mph SW1.1 kmh SW 3.1 mph5.0 kmh 29.75 in1007.5 mb 0.00 in0.0 mm 0.00 in0.0 mm 0.00 in0.0 mm
12:19 AM 65.1°F18.4°C 57.7°F14.3°C 77% 2.2 mph SW3.5 kmh SW 3.8 mph6.1 kmh 29.75 in1007.5 mb 0.00 in0.0 mm 0.00 in0.0 mm 0.00 in0.0 mm
12:24 AM 65.1°F18.4°C 57.7°F14.3°C 77% 2.2 mph SW3.5 kmh SW 4.5 mph7.2 kmh 29.75 in1007.5 mb 0.00 in0.0 mm 0.00 in0.0 mm 0.00 in0.0 mm
12:29 AM 65.1°F18.4°C 57.7°F14.3°C 77% 1.6 mph SSW2.6 kmh SSW 3.8 mph6.1 kmh 29.75 in1007.5 mb 0.00 in0.0 mm 0.00 in0.0 mm 0.00 in0.0 mm
12:34 AM 64.9°F18.3°C 57.9°F14.4°C 78% 1.6 mph S2.6 kmh S 3.1 mph5.0 kmh 29.75 in1007.5 mb 0.00 in0.0 mm 0.00 in0.0 mm 0.00 in0.0 mm
12:39 AM 64.9°F18.3°C 57.9°F14.4°C 78% 0.7 mph S1.1 kmh S 4.5 mph7.2 kmh 29.75 in1007.5 mb 0.00 in0.0 mm 0.00 in0.0 mm 0.00 in0.0 mm
12:44 AM 64.8°F18.2°C 57.7°F14.3°C 78% 0.7 mph S1.1 kmh S 3.8 mph6.1 kmh 29.75 in1007.5 mb 0.00 in0.0 mm 0.00 in0.0 mm 0.00 in0.0 mm
12:50 AM 64.8°F18.2°C 57.7°F14.3°C 78% 2.2 mph S3.5 kmh S 4.5 mph7.2 kmh 29.75 in1007.5 mb 0.00 in0.0 mm 0.00 in0.0 mm 0.00 in0.0 mm
12:55 AM 64.8°F18.2°C 57.7°F14.3°C 78% 1.6 mph SW2.6 kmh SW 3.1 mph5.0 kmh 29.75 in1007.5 mb 0.00 in0.0 mm 0.00 in0.0 mm 0.00 in0.0 mm
01:00 AM 64.8°F18.2°C 57.7°F14.3°C 78% 1.6 mph SSW2.6 kmh SSW 3.8 mph6.1 kmh 29.74 in1007.1 mb 0.00 in0.0 mm 0.00 in0.0 mm 0.00 in0.0 mm
01:05 AM 64.6°F18.1°C 57.6°F14.2°C 78% 2.2 mph SW3.5 kmh SW 4.5 mph7.2 kmh 29.74 in1007.1 mb 0.00 in0.0 mm 0.00 in0.0 mm 0.00 in0.0 mm
01:10 AM 64.6°F18.1°C 57.6°F14.2°C 78% 3.1 mph S5.0 kmh S 3.8 mph6.1 kmh 29.74 in1007.1 mb 0.00 in0.0 mm 0.00 in0.0 mm 0.00 in0.0 mm
01:15 AM 64.6°F18.1°C 57.6°F14.2°C 78% 2.2 mph SSW3.5 kmh SSW 4.5 mph7.2 kmh 29.74 in1007.1 mb 0.00 in0.0 mm 0.00 in0.0 mm 0.00 in0.0 mm
01:21 AM 64.4°F18.0°C 57.4°F14.1°C 78% 1.6 mph SW2.6 kmh SW 3.8 mph6.1 kmh 29.74 in1007.1 mb 0.00 in0.0 mm 0.00 in0.0 mm 0.00 in0.0 mm
01:26 AM 64.4°F18.0°C 57.4°F14.1°C 78% 1.6 mph S2.6 kmh S 3.8 mph6.1 kmh 29.74 in1007.1 mb 0.00 in0.0 mm 0.00 in0.0 mm 0.00 in0.0 mm
01:36 AM 64.2°F17.9°C 57.9°F14.4°C 80% 1.6 mph SW2.6 kmh SW 3.1 mph5.0 kmh 29.73 in1006.8 mb 0.00 in0.0 mm 0.00 in0.0 mm 0.00 in0.0 mm
01:41 AM 64.2°F17.9°C 57.9°F14.4°C 80% 0.7 mph SW1.1 kmh SW 3.1 mph5.0 kmh 29.73 in1006.8 mb 0.00 in0.0 mm 0.00 in0.0 mm 0.00 in0.0 mm
01:46 AM 64.2°F17.9°C 57.9°F14.4°C 80% 0.7 mph SW1.1 kmh SW 3.1 mph5.0 kmh 29.74 in1007.1 mb 0.00 in0.0 mm 0.00 in0.0 mm 0.00 in0.0 mm
01:52 AM 64.0°F17.8°C 57.7°F14.3°C 80% Calm Calm 2.2 mph3.5 kmh 29.73 in1006.8 mb 0.00 in0.0 mm 0.00 in0.0 mm 0.00 in0.0 mm
01:57 AM 63.7°F17.6°C 57.4°F14.1°C 80% Calm Calm 0.7 mph1.1 kmh 29.73 in1006.8 mb 0.00 in0.0 mm 0.00 in0.0 mm 0.00 in0.0 mm
02:02 AM 63.5°F17.5°C 57.2°F14.0°C 80% Calm Calm -- 29.73 in1006.8 mb 0.00 in0.0 mm 0.00 in0.0 mm 0.00 in0.0 mm
02:05 AM 63.5°F17.5°C 57.2°F14.0°C 80% Calm Calm -- 29.73 in1006.8 mb 0.00 in0.0 mm 0.00 in0.0 mm 0.00 in0.0 mm
02:10 AM 63.3°F17.4°C 57.0°F13.9°C 80% 1.6 mph W2.6 kmh W 2.2 mph3.5 kmh 29.73 in1006.8 mb 0.00 in0.0 mm 0.00 in0.0 mm 0.00 in0.0 mm
02:15 AM 63.1°F17.3°C 56.8°F13.8°C 80% 0.7 mph SW1.1 kmh SW 2.2 mph3.5 kmh 29.73 in1006.8 mb 0.00 in0.0 mm 0.00 in0.0 mm 0.00 in0.0 mm
02:20 AM 63.0°F17.2°C 56.7°F13.7°C 80% 0.7 mph SW1.1 kmh SW 1.6 mph2.6 kmh 29.73 in1006.8 mb 0.00 in0.0 mm 0.00 in0.0 mm 0.00 in0.0 mm
02:25 AM 62.8°F17.1°C 56.5°F13.6°C 80% 1.6 mph SW2.6 kmh SW 3.1 mph5.0 kmh 29.72 in1006.4 mb 0.00 in0.0 mm 0.00 in0.0 mm 0.00 in0.0 mm
02:30 AM 62.6°F17.0°C 56.3°F13.5°C 80% 3.1 mph S5.0 kmh S 3.8 mph6.1 kmh 29.73 in1006.8 mb 0.00 in0.0 mm 0.00 in0.0 mm 0.00 in0.0 mm
02:36 AM 62.6°F17.0°C 56.3°F13.5°C 80% 2.2 mph SW3.5 kmh SW 3.8 mph6.1 kmh 29.72 in1006.4 mb 0.00 in0.0 mm 0.00 in0.0 mm 0.00 in0.0 mm
02:41 AM 62.8°F17.1°C 56.5°F13.6°C 80% 2.2 mph SW3.5 kmh SW 3.1 mph5.0 kmh 29.73 in1006.8 mb 0.00 in0.0 mm 0.00 in0.0 mm 0.00 in0.0 mm
02:46 AM 62.8°F17.1°C 56.5°F13.6°C 80% 1.6 mph SW2.6 kmh SW 3.8 mph6.1 kmh 29.72 in1006.4 mb 0.00 in0.0 mm 0.00 in0.0 mm 0.00 in0.0 mm
02:51 AM 62.8°F17.1°C 56.5°F13.6°C 80% 1.6 mph S2.6 kmh S 4.5 mph7.2 kmh 29.73 in1006.8 mb 0.00 in0.0 mm 0.00 in0.0 mm 0.00 in0.0 mm
02:56 AM 63.0°F17.2°C 56.7°F13.7°C 80% 1.6 mph S2.6 kmh S 3.8 mph6.1 kmh 29.73 in1006.8 mb 0.00 in0.0 mm 0.00 in0.0 mm 0.00 in0.0 mm
03:01 AM 62.8°F17.1°C 56.5°F13.6°C 80% Calm Calm 2.2 mph3.5 kmh 29.73 in1006.8 mb 0.00 in0.0 mm 0.00 in0.0 mm 0.00 in0.0 mm
03:07 AM 63.0°F17.2°C 56.7°F13.7°C 80% 0.7 mph SW1.1 kmh SW 3.1 mph5.0 kmh 29.72 in1006.4 mb 0.00 in0.0 mm 0.00 in0.0 mm 0.00 in0.0 mm
03:12 AM 63.0°F17.2°C 56.7°F13.7°C 80% 1.6 mph S2.6 kmh S 3.1 mph5.0 kmh 29.73 in1006.8 mb 0.00 in0.0 mm 0.00 in0.0 mm 0.00 in0.0 mm
03:17 AM 63.0°F17.2°C 56.7°F13.7°C 80% 0.7 mph WSW1.1 kmh WSW 4.5 mph7.2 kmh 29.73 in1006.8 mb 0.00 in0.0 mm 0.00 in0.0 mm 0.00 in0.0 mm
03:22 AM 63.0°F17.2°C 56.7°F13.7°C 80% 1.6 mph SW2.6 kmh SW 3.1 mph5.0 kmh 29.73 in1006.8 mb 0.00 in0.0 mm 0.00 in0.0 mm 0.00 in0.0 mm
03:27 AM 63.0°F17.2°C 56.7°F13.7°C 80% 2.2 mph SW3.5 kmh SW 3.1 mph5.0 kmh 29.72 in1006.4 mb 0.00 in0.0 mm 0.00 in0.0 mm 0.00 in0.0 mm
03:32 AM 63.0°F17.2°C 57.0°F13.9°C 81% 0.7 mph S1.1 kmh S 2.2 mph3.5 kmh 29.72 in1006.4 mb 0.00 in0.0 mm 0.00 in0.0 mm 0.00 in0.0 mm
03:38 AM 63.0°F17.2°C 57.0°F13.9°C 81% 1.6 mph SW2.6 kmh SW 2.2 mph3.5 kmh 29.72 in1006.4 mb 0.00 in0.0 mm 0.00 in0.0 mm 0.00 in0.0 mm
03:43 AM 63.0°F17.2°C 57.0°F13.9°C 81% 0.7 mph SW1.1 kmh SW 3.1 mph5.0 kmh 29.72 in1006.4 mb 0.00 in0.0 mm 0.00 in0.0 mm 0.00 in0.0 mm
03:48 AM 62.8°F17.1°C 56.8°F13.8°C 81% 0.7 mph SW1.1 kmh SW 3.1 mph5.0 kmh 29.72 in1006.4 mb 0.00 in0.0 mm 0.00 in0.0 mm 0.00 in0.0 mm
03:53 AM 62.8°F17.1°C 56.8°F13.8°C 81% Calm Calm 2.2 mph3.5 kmh 29.72 in1006.4 mb 0.00 in0.0 mm 0.00 in0.0 mm 0.00 in0.0 mm
03:58 AM 62.8°F17.1°C 56.8°F13.8°C 81% Calm Calm 1.6 mph2.6 kmh 29.72 in1006.4 mb 0.00 in0.0 mm 0.00 in0.0 mm 0.00 in0.0 mm
04:03 AM 62.6°F17.0°C 56.7°F13.7°C 81% 0.7 mph W1.1 kmh W 3.1 mph5.0 kmh 29.72 in1006.4 mb 0.00 in0.0 mm 0.00 in0.0 mm 0.00 in0.0 mm
04:09 AM 62.2°F16.8°C 55.9°F13.3°C 80% 0.7 mph SW1.1 kmh SW 3.1 mph5.0 kmh 29.72 in1006.4 mb 0.00 in0.0 mm 0.00 in0.0 mm 0.00 in0.0 mm
04:14 AM 62.2°F16.8°C 55.9°F13.3°C 80% 1.6 mph SW2.6 kmh SW 3.1 mph5.0 kmh 29.72 in1006.4 mb 0.00 in0.0 mm 0.00 in0.0 mm 0.00 in0.0 mm
04:19 AM 62.1°F16.7°C 55.8°F13.2°C 80% 2.2 mph SW3.5 kmh SW 3.1 mph5.0 kmh 29.72 in1006.4 mb 0.00 in0.0 mm 0.00 in0.0 mm 0.00 in0.0 mm
04:24 AM 62.1°F16.7°C 55.8°F13.2°C 80% 2.2 mph SW3.5 kmh SW 3.8 mph6.1 kmh 29.72 in1006.4 mb 0.00 in0.0 mm 0.00 in0.0 mm 0.00 in0.0 mm
04:29 AM 61.5°F16.4°C 55.2°F12.9°C 80% 2.2 mph SW3.5 kmh SW 3.8 mph6.1 kmh 29.72 in1006.4 mb 0.00 in0.0 mm 0.00 in0.0 mm 0.00 in0.0 mm
04:34 AM 61.5°F16.4°C 55.2°F12.9°C 80% 0.7 mph W1.1 kmh W 3.1 mph5.0 kmh 29.72 in1006.4 mb 0.00 in0.0 mm 0.00 in0.0 mm 0.00 in0.0 mm
04:40 AM 61.5°F16.4°C 55.2°F12.9°C 80% 1.6 mph SW2.6 kmh SW 2.2 mph3.5 kmh 29.72 in1006.4 mb 0.00 in0.0 mm 0.00 in0.0 mm 0.00 in0.0 mm
04:45 AM 61.5°F16.4°C 55.2°F12.9°C 80% 0.7 mph SW1.1 kmh SW 2.2 mph3.5 kmh 29.72 in1006.4 mb 0.00 in0.0 mm 0.00 in0.0 mm 0.00 in0.0 mm
04:50 AM 61.5°F16.4°C 55.2°F12.9°C 80% 0.7 mph S1.1 kmh S 3.8 mph6.1 kmh 29.72 in1006.4 mb 0.00 in0.0 mm 0.00 in0.0 mm 0.00 in0.0 mm
04:55 AM 61.5°F16.4°C 55.2°F12.9°C 80% 0.7 mph W1.1 kmh W 2.2 mph3.5 kmh 29.72 in1006.4 mb 0.00 in0.0 mm 0.00 in0.0 mm 0.00 in0.0 mm
05:00 AM 61.5°F16.4°C 55.2°F12.9°C 80% 1.6 mph SW2.6 kmh SW 2.2 mph3.5 kmh 29.72 in1006.4 mb 0.00 in0.0 mm 0.00 in0.0 mm 0.00 in0.0 mm
05:05 AM 61.3°F16.3°C 55.0°F12.8°C 80% Calm Calm 2.2 mph3.5 kmh 29.72 in1006.4 mb 0.00 in0.0 mm 0.00 in0.0 mm 0.00 in0.0 mm
05:11 AM 61.2°F16.2°C 54.9°F12.7°C 80% 1.6 mph SW2.6 kmh SW 2.2 mph3.5 kmh 29.73 in1006.8 mb 0.00 in0.0 mm 0.00 in0.0 mm 0.00 in0.0 mm
05:16 AM 61.2°F16.2°C 54.9°F12.7°C 80% Calm Calm 2.2 mph3.5 kmh 29.73 in1006.8 mb 0.00 in0.0 mm 0.00 in0.0 mm 0.00 in0.0 mm
05:21 AM 61.2°F16.2°C 54.9°F12.7°C 80% Calm Calm 1.6 mph2.6 kmh 29.73 in1006.8 mb 0.00 in0.0 mm 0.00 in0.0 mm 0.00 in0.0 mm
05:26 AM 61.2°F16.2°C 54.9°F12.7°C 80% Calm Calm 1.6 mph2.6 kmh 29.73 in1006.8 mb 0.00 in0.0 mm 0.00 in0.0 mm 0.00 in0.0 mm
05:31 AM 61.0°F16.1°C 54.7°F12.6°C 80% Calm Calm 1.6 mph2.6 kmh 29.73 in1006.8 mb 0.00 in0.0 mm 0.00 in0.0 mm 0.00 in0.0 mm
05:36 AM 61.0°F16.1°C 54.7°F12.6°C 80% Calm Calm 1.6 mph2.6 kmh 29.73 in1006.8 mb 0.00 in0.0 mm 0.00 in0.0 mm 0.00 in0.0 mm
05:42 AM 61.0°F16.1°C 54.7°F12.6°C 80% 0.7 mph W1.1 kmh W 1.6 mph2.6 kmh 29.74 in1007.1 mb 0.00 in0.0 mm 0.00 in0.0 mm 0.00 in0.0 mm
05:47 AM 60.8°F16.0°C 54.7°F12.6°C 80% 1.6 mph SW2.6 kmh SW 2.2 mph3.5 kmh 29.74 in1007.1 mb 0.00 in0.0 mm 0.00 in0.0 mm 0.00 in0.0 mm
05:52 AM 60.3°F15.7°C 54.3°F12.4°C 81% 2.2 mph SW3.5 kmh SW 3.1 mph5.0 kmh 29.74 in1007.1 mb 0.00 in0.0 mm 0.00 in0.0 mm 0.00 in0.0 mm
05:57 AM 60.1°F15.6°C 54.3°F12.4°C 81% 2.2 mph SW3.5 kmh SW 3.8 mph6.1 kmh 29.74 in1007.1 mb 0.00 in0.0 mm 0.00 in0.0 mm 0.00 in0.0 mm
06:02 AM 60.1°F15.6°C 54.3°F12.4°C 81% 1.6 mph SW2.6 kmh SW 3.1 mph5.0 kmh 29.74 in1007.1 mb 0.00 in0.0 mm 0.00 in0.0 mm 0.00 in0.0 mm
06:08 AM 59.9°F15.5°C 54.1°F12.3°C 81% 1.6 mph W2.6 kmh W 3.1 mph5.0 kmh 29.75 in1007.5 mb 0.00 in0.0 mm 0.00 in0.0 mm 0.00 in0.0 mm
06:13 AM 59.9°F15.5°C 54.1°F12.3°C 81% 0.7 mph W1.1 kmh W 2.2 mph3.5 kmh 29.75 in1007.5 mb 0.00 in0.0 mm 0.00 in0.0 mm 0.00 in0.0 mm
06:18 AM 59.9°F15.5°C 54.1°F12.3°C 81% 0.7 mph W1.1 kmh W 2.2 mph3.5 kmh 29.75 in1007.5 mb 0.00 in0.0 mm 0.00 in0.0 mm 0.00 in0.0 mm
06:23 AM 59.9°F15.5°C 54.1°F12.3°C 81% 0.7 mph W1.1 kmh W 2.2 mph3.5 kmh 29.75 in1007.5 mb 0.00 in0.0 mm 0.00 in0.0 mm 0.00 in0.0 mm
06:28 AM 59.9°F15.5°C 54.1°F12.3°C 81% 0.7 mph W1.1 kmh W 2.2 mph3.5 kmh 29.75 in1007.5 mb 0.00 in0.0 mm 0.00 in0.0 mm 0.00 in0.0 mm
06:33 AM 60.1°F15.6°C 54.3°F12.4°C 81% Calm Calm 1.6 mph2.6 kmh 29.75 in1007.5 mb 0.00 in0.0 mm 0.00 in0.0 mm 0.00 in0.0 mm
06:39 AM 60.4°F15.8°C 54.5°F12.5°C 81% Calm Calm -- 29.75 in1007.5 mb 0.00 in0.0 mm 0.00 in0.0 mm 0.00 in0.0 mm
06:44 AM 60.8°F16.0°C 54.7°F12.6°C 80% Calm Calm -- 29.75 in1007.5 mb 0.00 in0.0 mm 0.00 in0.0 mm 0.00 in0.0 mm
06:49 AM 61.5°F16.4°C 55.2°F12.9°C 80% Calm Calm -- 29.76 in1007.8 mb 0.00 in0.0 mm 0.00 in0.0 mm 0.00 in0.0 mm
06:54 AM 61.5°F16.4°C 55.2°F12.9°C 80% Calm Calm 0.7 mph1.1 kmh 29.76 in1007.8 mb 0.00 in0.0 mm 0.00 in0.0 mm 0.00 in0.0 mm
06:59 AM 62.1°F16.7°C 55.8°F13.2°C 80% Calm Calm 1.6 mph2.6 kmh 29.76 in1007.8 mb 0.00 in0.0 mm 0.00 in0.0 mm 0.00 in0.0 mm
07:04 AM 62.4°F16.9°C 56.1°F13.4°C 80% Calm Calm 1.6 mph2.6 kmh 29.76 in1007.8 mb 0.00 in0.0 mm 0.00 in0.0 mm 0.00 in0.0 mm
07:10 AM 62.8°F17.1°C 57.2°F14.0°C 82% Calm Calm 0.7 mph1.1 kmh 29.76 in1007.8 mb 0.00 in0.0 mm 0.00 in0.0 mm 0.00 in0.0 mm
07:15 AM 63.5°F17.5°C 57.9°F14.4°C 82% Calm Calm -- 29.76 in1007.8 mb 0.00 in0.0 mm 0.00 in0.0 mm 0.00 in0.0 mm
07:20 AM 64.0°F17.8°C 58.5°F14.7°C 82% 0.7 mph W1.1 kmh W 1.6 mph2.6 kmh 29.76 in1007.8 mb 0.00 in0.0 mm 0.00 in0.0 mm 0.00 in0.0 mm
07:25 AM 64.2°F17.9°C 58.6°F14.8°C 82% 1.6 mph SSW2.6 kmh SSW 2.2 mph3.5 kmh 29.77 in1008.1 mb 0.00 in0.0 mm 0.00 in0.0 mm 0.00 in0.0 mm
07:30 AM 64.6°F18.1°C 58.6°F14.8°C 81% 1.6 mph NW2.6 kmh NW 2.2 mph3.5 kmh 29.77 in1008.1 mb 0.00 in0.0 mm 0.00 in0.0 mm 0.00 in0.0 mm
07:35 AM 64.6°F18.1°C 58.6°F14.8°C 81% 1.6 mph SW2.6 kmh SW 2.2 mph3.5 kmh 29.77 in1008.1 mb 0.00 in0.0 mm 0.00 in0.0 mm 0.00 in0.0 mm
07:41 AM 65.1°F18.4°C 59.2°F15.1°C 81% 1.6 mph SW2.6 kmh SW 2.2 mph3.5 kmh 29.77 in1008.1 mb 0.00 in0.0 mm 0.00 in0.0 mm 0.00 in0.0 mm
07:46 AM 66.0°F18.9°C 60.1°F15.6°C 81% Calm Calm 3.1 mph5.0 kmh 29.77 in1008.1 mb 0.00 in0.0 mm 0.00 in0.0 mm 0.00 in0.0 mm
07:51 AM 67.8°F19.9°C 61.3°F16.3°C 80% 1.6 mph S2.6 kmh S 2.2 mph3.5 kmh 29.77 in1008.1 mb 0.00 in0.0 mm 0.00 in0.0 mm 0.00 in0.0 mm
07:56 AM 69.4°F20.8°C 62.6°F17.0°C 79% 0.7 mph SW1.1 kmh SW 2.2 mph3.5 kmh 29.77 in1008.1 mb 0.00 in0.0 mm 0.00 in0.0 mm 0.00 in0.0 mm
08:01 AM 69.4°F20.8°C 62.6°F17.0°C 79% 0.7 mph SW1.1 kmh SW 1.6 mph2.6 kmh 29.78 in1008.5 mb 0.00 in0.0 mm 0.00 in0.0 mm 0.00 in0.0 mm
08:09 AM 72.9°F22.7°C 64.0°F17.8°C 74% 0.7 mph SW1.1 kmh SW 1.6 mph2.6 kmh 29.77 in1008.1 mb 0.00 in0.0 mm 0.00 in0.0 mm 0.00 in0.0 mm
08:14 AM 73.0°F22.8°C 63.5°F17.5°C 72% 0.7 mph S1.1 kmh S 3.1 mph5.0 kmh 29.78 in1008.5 mb 0.00 in0.0 mm 0.00 in0.0 mm 0.00 in0.0 mm
08:19 AM 73.2°F22.9°C 62.4°F16.9°C 69% 0.7 mph S1.1 kmh S 1.6 mph2.6 kmh 29.77 in1008.1 mb 0.00 in0.0 mm 0.00 in0.0 mm 0.00 in0.0 mm
08:24 AM 73.8°F23.2°C 61.7°F16.5°C 66% 1.6 mph S2.6 kmh S 3.1 mph5.0 kmh 29.77 in1008.1 mb 0.00 in0.0 mm 0.00 in0.0 mm 0.00 in0.0 mm
08:29 AM 74.7°F23.7°C 62.1°F16.7°C 65% 1.6 mph SW2.6 kmh SW 4.5 mph7.2 kmh 29.77 in1008.1 mb 0.00 in0.0 mm 0.00 in0.0 mm 0.00 in0.0 mm
08:35 AM 75.2°F24.0°C 61.3°F16.3°C 62% 3.1 mph SW5.0 kmh SW 4.5 mph7.2 kmh 29.78 in1008.5 mb 0.00 in0.0 mm 0.00 in0.0 mm 0.00 in0.0 mm
08:40 AM 76.1°F24.5°C 62.1°F16.7°C 62% Calm Calm 3.8 mph6.1 kmh 29.77 in1008.1 mb 0.00 in0.0 mm 0.00 in0.0 mm 0.00 in0.0 mm
08:45 AM 77.4°F25.2°C 61.9°F16.6°C 59% Calm Calm 4.5 mph7.2 kmh 29.78 in1008.5 mb 0.00 in0.0 mm 0.00 in0.0 mm 0.00 in0.0 mm
08:50 AM 79.2°F26.2°C 63.1°F17.3°C 58% 2.2 mph SW3.5 kmh SW 3.8 mph6.1 kmh 29.78 in1008.5 mb 0.00 in0.0 mm 0.00 in0.0 mm 0.00 in0.0 mm
08:55 AM 79.2°F26.2°C 62.1°F16.7°C 56% 2.2 mph SW3.5 kmh SW 4.5 mph7.2 kmh 29.78 in1008.5 mb 0.00 in0.0 mm 0.00 in0.0 mm 0.00 in0.0 mm
09:00 AM 79.3°F26.3°C 61.2°F16.2°C 54% 3.1 mph SW5.0 kmh SW 4.5 mph7.2 kmh 29.78 in1008.5 mb 0.00 in0.0 mm 0.00 in0.0 mm 0.00 in0.0 mm
09:06 AM 77.7°F25.4°C 60.8°F16.0°C 56% 1.6 mph S2.6 kmh S 6.0 mph9.7 kmh 29.78 in1008.5 mb 0.00 in0.0 mm 0.00 in0.0 mm 0.00 in0.0 mm
09:11 AM 78.8°F26.0°C 61.3°F16.3°C 55% 3.1 mph SW5.0 kmh SW 4.5 mph7.2 kmh 29.78 in1008.5 mb 0.00 in0.0 mm 0.00 in0.0 mm 0.00 in0.0 mm
09:16 AM 79.2°F26.2°C 61.2°F16.2°C 54% 5.4 mph S8.7 kmh S 6.0 mph9.7 kmh 29.78 in1008.5 mb 0.00 in0.0 mm 0.00 in0.0 mm 0.00 in0.0 mm
09:21 AM 78.3°F25.7°C 61.3°F16.3°C 56% 3.8 mph W6.1 kmh W 5.4 mph8.7 kmh 29.78 in1008.5 mb 0.00 in0.0 mm 0.00 in0.0 mm 0.00 in0.0 mm
09:26 AM 78.3°F25.7°C 61.7°F16.5°C 57% 5.4 mph S8.7 kmh S 8.3 mph13.4 kmh 29.78 in1008.5 mb 0.00 in0.0 mm 0.00 in0.0 mm 0.00 in0.0 mm
09:31 AM 79.3°F26.3°C 61.7°F16.5°C 55% 2.2 mph SW3.5 kmh SW 4.5 mph7.2 kmh 29.78 in1008.5 mb 0.00 in0.0 mm 0.00 in0.0 mm 0.00 in0.0 mm
09:37 AM 80.2°F26.8°C 62.1°F16.7°C 54% 2.2 mph W3.5 kmh W 4.5 mph7.2 kmh 29.78 in1008.5 mb 0.00 in0.0 mm 0.00 in0.0 mm 0.00 in0.0 mm
09:42 AM 80.6°F27.0°C 61.9°F16.6°C 53% 3.1 mph WSW5.0 kmh WSW 6.9 mph11.1 kmh 29.78 in1008.5 mb 0.00 in0.0 mm 0.00 in0.0 mm 0.00 in0.0 mm
09:47 AM 80.1°F26.7°C 61.9°F16.6°C 54% 4.5 mph W7.2 kmh W 6.9 mph11.1 kmh 29.78 in1008.5 mb 0.00 in0.0 mm 0.00 in0.0 mm 0.00 in0.0 mm
09:52 AM 79.7°F26.5°C 61.5°F16.4°C 54% 2.2 mph S3.5 kmh S 6.0 mph9.7 kmh 29.78 in1008.5 mb 0.00 in0.0 mm 0.00 in0.0 mm 0.00 in0.0 mm
09:57 AM 80.4°F26.9°C 62.2°F16.8°C 54% 1.6 mph W2.6 kmh W 5.4 mph8.7 kmh 29.78 in1008.5 mb 0.00 in0.0 mm 0.00 in0.0 mm 0.00 in0.0 mm
10:02 AM 81.7°F27.6°C 62.4°F16.9°C 52% 3.1 mph SW5.0 kmh SW 5.4 mph8.7 kmh 29.78 in1008.5 mb 0.00 in0.0 mm 0.00 in0.0 mm 0.00 in0.0 mm
10:08 AM 82.8°F28.2°C 62.8°F17.1°C 51% 3.1 mph SW5.0 kmh SW 4.5 mph7.2 kmh 29.78 in1008.5 mb 0.00 in0.0 mm 0.00 in0.0 mm 0.00 in0.0 mm
10:13 AM 82.2°F27.9°C 62.8°F17.1°C 52% 3.8 mph SW6.1 kmh SW 6.0 mph9.7 kmh 29.78 in1008.5 mb 0.00 in0.0 mm 0.00 in0.0 mm 0.00 in0.0 mm
10:18 AM 84.0°F28.9°C 63.3°F17.4°C 50% 0.7 mph E1.1 kmh E 4.5 mph7.2 kmh 29.78 in1008.5 mb 0.00 in0.0 mm 0.00 in0.0 mm 0.00 in0.0 mm
10:23 AM 84.7°F29.3°C 62.2°F16.8°C 47% 0.7 mph S1.1 kmh S 3.8 mph6.1 kmh 29.78 in1008.5 mb 0.00 in0.0 mm 0.00 in0.0 mm 0.00 in0.0 mm
10:28 AM 84.0°F28.9°C 62.2°F16.8°C 48% 2.2 mph W3.5 kmh W 6.9 mph11.1 kmh 29.78 in1008.5 mb 0.00 in0.0 mm 0.00 in0.0 mm 0.00 in0.0 mm
10:33 AM 83.3°F28.5°C 61.5°F16.4°C 48% 4.5 mph NW7.2 kmh NW 8.3 mph13.4 kmh 29.78 in1008.5 mb 0.00 in0.0 mm 0.00 in0.0 mm 0.00 in0.0 mm
10:39 AM 83.1°F28.4°C 62.6°F17.0°C 50% 4.5 mph SW7.2 kmh SW 6.0 mph9.7 kmh 29.78 in1008.5 mb 0.00 in0.0 mm 0.00 in0.0 mm 0.00 in0.0 mm
10:44 AM 80.2°F26.8°C 60.4°F15.8°C 51% 3.1 mph W5.0 kmh W 6.9 mph11.1 kmh 29.78 in1008.5 mb 0.00 in0.0 mm 0.00 in0.0 mm 0.00 in0.0 mm
10:49 AM 81.1°F27.3°C 61.9°F16.6°C 52% 0.7 mph S1.1 kmh S 5.4 mph8.7 kmh 29.79 in1008.8 mb 0.00 in0.0 mm 0.00 in0.0 mm 0.00 in0.0 mm
10:54 AM 83.5°F28.6°C 61.7°F16.5°C 48% 0.7 mph E1.1 kmh E 3.8 mph6.1 kmh 29.79 in1008.8 mb 0.00 in0.0 mm 0.00 in0.0 mm 0.00 in0.0 mm
10:59 AM 85.1°F29.5°C 62.1°F16.7°C 46% 3.1 mph NE5.0 kmh NE 6.0 mph9.7 kmh 29.79 in1008.8 mb 0.00 in0.0 mm 0.00 in0.0 mm 0.00 in0.0 mm
11:04 AM 84.4°F29.1°C 60.8°F16.0°C 45% 4.5 mph NW7.2 kmh NW 6.9 mph11.1 kmh 29.79 in1008.8 mb 0.00 in0.0 mm 0.00 in0.0 mm 0.00 in0.0 mm
11:10 AM 83.8°F28.8°C 61.5°F16.4°C 47% 4.5 mph 7.2 kmh 9.2 mph14.8 kmh 29.79 in1008.8 mb 0.00 in0.0 mm 0.00 in0.0 mm 0.00 in0.0 mm
11:15 AM 83.3°F28.5°C 61.0°F16.1°C 47% 6.9 mph NW11.1 kmh NW 9.8 mph15.8 kmh 29.79 in1008.8 mb 0.00 in0.0 mm 0.00 in0.0 mm 0.00 in0.0 mm
11:20 AM 83.7°F28.7°C 61.3°F16.3°C 47% 3.1 mph S5.0 kmh S 9.2 mph14.8 kmh 29.79 in1008.8 mb 0.00 in0.0 mm 0.00 in0.0 mm 0.00 in0.0 mm
11:25 AM 84.6°F29.2°C 60.8°F16.0°C 45% 2.2 mph NW3.5 kmh NW 6.0 mph9.7 kmh 29.79 in1008.8 mb 0.00 in0.0 mm 0.00 in0.0 mm 0.00 in0.0 mm
11:30 AM 83.7°F28.7°C 60.6°F15.9°C 46% 4.5 mph 7.2 kmh 11.4 mph18.3 kmh 29.79 in1008.8 mb 0.00 in0.0 mm 0.00 in0.0 mm 0.00 in0.0 mm
11:36 AM 83.8°F28.8°C 61.5°F16.4°C 47% 5.4 mph NW8.7 kmh NW 7.6 mph12.2 kmh 29.79 in1008.8 mb 0.00 in0.0 mm 0.00 in0.0 mm 0.00 in0.0 mm
11:41 AM 82.8°F28.2°C 59.2°F15.1°C 45% 1.6 mph W2.6 kmh W 7.6 mph12.2 kmh 29.79 in1008.8 mb 0.00 in0.0 mm 0.00 in0.0 mm 0.00 in0.0 mm
11:46 AM 83.7°F28.7°C 59.4°F15.2°C 44% 2.2 mph NE3.5 kmh NE 7.6 mph12.2 kmh 29.79 in1008.8 mb 0.00 in0.0 mm 0.00 in0.0 mm 0.00 in0.0 mm
11:51 AM 84.6°F29.2°C 60.3°F15.7°C 44% 4.5 mph W7.2 kmh W 8.3 mph13.4 kmh 29.79 in1008.8 mb 0.00 in0.0 mm 0.00 in0.0 mm 0.00 in0.0 mm
11:56 AM 83.1°F28.4°C 59.5°F15.3°C 45% 6.0 mph NW9.7 kmh NW 9.2 mph14.8 kmh 29.79 in1008.8 mb 0.00 in0.0 mm 0.00 in0.0 mm 0.00 in0.0 mm
12:01 PM 83.3°F28.5°C 59.7°F15.4°C 45% 3.8 mph SW6.1 kmh SW 7.6 mph12.2 kmh 29.78 in1008.5 mb 0.00 in0.0 mm 0.00 in0.0 mm 0.00 in0.0 mm
12:07 PM 83.7°F28.7°C 59.4°F15.2°C 44% 5.4 mph NNW8.7 kmh NNW 8.3 mph13.4 kmh 29.79 in1008.8 mb 0.00 in0.0 mm 0.00 in0.0 mm 0.00 in0.0 mm
12:12 PM 83.5°F28.6°C 59.4°F15.2°C 44% 4.5 mph NW7.2 kmh NW 8.3 mph13.4 kmh 29.78 in1008.5 mb 0.00 in0.0 mm 0.00 in0.0 mm 0.00 in0.0 mm
12:17 PM 83.7°F28.7°C 60.1°F15.6°C 45% 4.5 mph NW7.2 kmh NW 7.6 mph12.2 kmh 29.78 in1008.5 mb 0.00 in0.0 mm 0.00 in0.0 mm 0.00 in0.0 mm
12:22 PM 84.9°F29.4°C 60.6°F15.9°C 44% 1.6 mph S2.6 kmh S 6.0 mph9.7 kmh 29.78 in1008.5 mb 0.00 in0.0 mm 0.00 in0.0 mm 0.00 in0.0 mm
12:27 PM 87.1°F30.6°C 60.4°F15.8°C 41% 3.8 mph W6.1 kmh W 6.0 mph9.7 kmh 29.78 in1008.5 mb 0.00 in0.0 mm 0.00 in0.0 mm 0.00 in0.0 mm
12:32 PM 85.3°F29.6°C 59.5°F15.3°C 42% 3.1 mph S5.0 kmh S 9.2 mph14.8 kmh 29.78 in1008.5 mb 0.00 in0.0 mm 0.00 in0.0 mm 0.00 in0.0 mm
12:38 PM 85.6°F29.8°C 59.9°F15.5°C 42% 0.7 mph SE1.1 kmh SE 4.5 mph7.2 kmh 29.78 in1008.5 mb 0.00 in0.0 mm 0.00 in0.0 mm 0.00 in0.0 mm
12:43 PM 86.2°F30.1°C 59.7°F15.4°C 41% 4.5 mph SW7.2 kmh SW 7.6 mph12.2 kmh 29.78 in1008.5 mb 0.00 in0.0 mm 0.00 in0.0 mm 0.00 in0.0 mm
12:48 PM 85.3°F29.6°C 59.0°F15.0°C 41% 3.1 mph SE5.0 kmh SE 9.8 mph15.8 kmh 29.77 in1008.1 mb 0.00 in0.0 mm 0.00 in0.0 mm 0.00 in0.0 mm
12:53 PM 85.1°F29.5°C 59.4°F15.2°C 42% 1.6 mph S2.6 kmh S 6.9 mph11.1 kmh 29.77 in1008.1 mb 0.00 in0.0 mm 0.00 in0.0 mm 0.00 in0.0 mm
12:58 PM 85.8°F29.9°C 59.4°F15.2°C 41% 7.6 mph SW12.2 kmh SW 10.7 mph17.2 kmh 29.78 in1008.5 mb 0.00 in0.0 mm 0.00 in0.0 mm 0.00 in0.0 mm
01:03 PM 84.9°F29.4°C 58.6°F14.8°C 41% 2.2 mph W3.5 kmh W 10.7 mph17.2 kmh 29.77 in1008.1 mb 0.00 in0.0 mm 0.00 in0.0 mm 0.00 in0.0 mm
01:09 PM 85.6°F29.8°C 59.2°F15.1°C 41% 3.1 mph E5.0 kmh E 5.4 mph8.7 kmh 29.77 in1008.1 mb 0.00 in0.0 mm 0.00 in0.0 mm 0.00 in0.0 mm
01:14 PM 86.7°F30.4°C 59.5°F15.3°C 40% 5.4 mph S8.7 kmh S 7.6 mph12.2 kmh 29.77 in1008.1 mb 0.00 in0.0 mm 0.00 in0.0 mm 0.00 in0.0 mm
01:19 PM 87.1°F30.6°C 59.9°F15.5°C 40% 3.8 mph SW6.1 kmh SW 7.6 mph12.2 kmh 29.77 in1008.1 mb 0.00 in0.0 mm 0.00 in0.0 mm 0.00 in0.0 mm
01:24 PM 86.9°F30.5°C 59.0°F15.0°C 39% 1.6 mph E2.6 kmh E 6.9 mph11.1 kmh 29.77 in1008.1 mb 0.00 in0.0 mm 0.00 in0.0 mm 0.00 in0.0 mm
01:29 PM 86.4°F30.2°C 57.7°F14.3°C 38% 6.0 mph SSE9.7 kmh SSE 12.1 mph19.5 kmh 29.77 in1008.1 mb 0.00 in0.0 mm 0.00 in0.0 mm 0.00 in0.0 mm
01:34 PM 86.4°F30.2°C 57.0°F13.9°C 37% 2.2 mph SW3.5 kmh SW 7.6 mph12.2 kmh 29.77 in1008.1 mb 0.00 in0.0 mm 0.00 in0.0 mm 0.00 in0.0 mm
01:40 PM 86.9°F30.5°C 57.6°F14.2°C 37% 3.8 mph S6.1 kmh S 6.9 mph11.1 kmh 29.77 in1008.1 mb 0.00 in0.0 mm 0.00 in0.0 mm 0.00 in0.0 mm
01:45 PM 87.1°F30.6°C 56.8°F13.8°C 36% 1.6 mph SSE2.6 kmh SSE 8.3 mph13.4 kmh 29.76 in1007.8 mb 0.00 in0.0 mm 0.00 in0.0 mm 0.00 in0.0 mm
01:50 PM 88.0°F31.1°C 57.7°F14.3°C 36% 3.1 mph SW5.0 kmh SW 5.4 mph8.7 kmh 29.76 in1007.8 mb 0.00 in0.0 mm 0.00 in0.0 mm 0.00 in0.0 mm
01:55 PM 87.4°F30.8°C 57.2°F14.0°C 36% 4.5 mph SW7.2 kmh SW 8.3 mph13.4 kmh 29.76 in1007.8 mb 0.00 in0.0 mm 0.00 in0.0 mm 0.00 in0.0 mm
02:00 PM 86.9°F30.5°C 58.3°F14.6°C 38% 4.5 mph S7.2 kmh S 7.6 mph12.2 kmh 29.76 in1007.8 mb 0.00 in0.0 mm 0.00 in0.0 mm 0.00 in0.0 mm
02:05 PM 86.5°F30.3°C 57.9°F14.4°C 38% 2.2 mph SE3.5 kmh SE 8.3 mph13.4 kmh 29.76 in1007.8 mb 0.00 in0.0 mm 0.00 in0.0 mm 0.00 in0.0 mm
02:11 PM 87.4°F30.8°C 58.6°F14.8°C 38% 2.2 mph E3.5 kmh E 5.4 mph8.7 kmh 29.76 in1007.8 mb 0.00 in0.0 mm 0.00 in0.0 mm 0.00 in0.0 mm
02:16 PM 87.6°F30.9°C 59.5°F15.3°C 39% 3.8 mph S6.1 kmh S 7.6 mph12.2 kmh 29.76 in1007.8 mb 0.00 in0.0 mm 0.00 in0.0 mm 0.00 in0.0 mm
02:21 PM 87.4°F30.8°C 59.4°F15.2°C 39% 3.8 mph S6.1 kmh S 7.6 mph12.2 kmh 29.76 in1007.8 mb 0.00 in0.0 mm 0.00 in0.0 mm 0.00 in0.0 mm
02:26 PM 87.1°F30.6°C 57.6°F14.2°C 37% 1.6 mph NNE2.6 kmh NNE 8.3 mph13.4 kmh 29.75 in1007.5 mb 0.00 in0.0 mm 0.00 in0.0 mm 0.00 in0.0 mm
02:31 PM 87.6°F30.9°C 58.8°F14.9°C 38% 3.8 mph WSW6.1 kmh WSW 6.9 mph11.1 kmh 29.75 in1007.5 mb 0.00 in0.0 mm 0.00 in0.0 mm 0.00 in0.0 mm
02:36 PM 87.6°F30.9°C 58.8°F14.9°C 38% 0.7 mph NW1.1 kmh NW 5.4 mph8.7 kmh 29.75 in1007.5 mb 0.00 in0.0 mm 0.00 in0.0 mm 0.00 in0.0 mm
02:42 PM 88.9°F31.6°C 59.9°F15.5°C 38% 5.4 mph NW8.7 kmh NW 7.6 mph12.2 kmh 29.75 in1007.5 mb 0.00 in0.0 mm 0.00 in0.0 mm 0.00 in0.0 mm
02:47 PM 88.9°F31.6°C 59.9°F15.5°C 38% 3.8 mph NW6.1 kmh NW 7.6 mph12.2 kmh 29.75 in1007.5 mb 0.00 in0.0 mm 0.00 in0.0 mm 0.00 in0.0 mm
02:52 PM 88.3°F31.3°C 59.5°F15.3°C 38% 3.1 mph NW5.0 kmh NW 7.6 mph12.2 kmh 29.75 in1007.5 mb 0.00 in0.0 mm 0.00 in0.0 mm 0.00 in0.0 mm
02:57 PM 88.3°F31.3°C 59.5°F15.3°C 38% 3.1 mph NW5.0 kmh NW 6.0 mph9.7 kmh 29.75 in1007.5 mb 0.00 in0.0 mm 0.00 in0.0 mm 0.00 in0.0 mm
03:02 PM 88.5°F31.4°C 59.7°F15.4°C 38% 6.0 mph NW9.7 kmh NW 9.2 mph14.8 kmh 29.75 in1007.5 mb 0.00 in0.0 mm 0.00 in0.0 mm 0.00 in0.0 mm
03:07 PM 88.2°F31.2°C 59.4°F15.2°C 38% 4.5 mph 7.2 kmh 7.6 mph12.2 kmh 29.75 in1007.5 mb 0.00 in0.0 mm 0.00 in0.0 mm 0.00 in0.0 mm
03:13 PM 87.8°F31.0°C 59.0°F15.0°C 38% 2.2 mph SW3.5 kmh SW 7.6 mph12.2 kmh 29.75 in1007.5 mb 0.00 in0.0 mm 0.00 in0.0 mm 0.00 in0.0 mm
03:18 PM 88.5°F31.4°C 59.7°F15.4°C 38% 5.4 mph NW8.7 kmh NW 6.0 mph9.7 kmh 29.74 in1007.1 mb 0.00 in0.0 mm 0.00 in0.0 mm 0.00 in0.0 mm
03:23 PM 88.5°F31.4°C 59.7°F15.4°C 38% Calm Calm 7.6 mph12.2 kmh 29.75 in1007.5 mb 0.00 in0.0 mm 0.00 in0.0 mm 0.00 in0.0 mm
03:28 PM 88.9°F31.6°C 59.9°F15.5°C 38% 0.7 mph NE1.1 kmh NE 6.0 mph9.7 kmh 29.74 in1007.1 mb 0.00 in0.0 mm 0.00 in0.0 mm 0.00 in0.0 mm
03:33 PM 88.9°F31.6°C 59.9°F15.5°C 38% 3.8 mph WSW6.1 kmh WSW 7.6 mph12.2 kmh 29.74 in1007.1 mb 0.00 in0.0 mm 0.00 in0.0 mm 0.00 in0.0 mm
03:38 PM 88.9°F31.6°C 59.9°F15.5°C 38% 0.7 mph SE1.1 kmh SE 6.0 mph9.7 kmh 29.74 in1007.1 mb 0.00 in0.0 mm 0.00 in0.0 mm 0.00 in0.0 mm
03:44 PM 90.3°F32.4°C 60.4°F15.8°C 37% 3.8 mph W6.1 kmh W 7.6 mph12.2 kmh 29.74 in1007.1 mb 0.00 in0.0 mm 0.00 in0.0 mm 0.00 in0.0 mm
03:49 PM 90.0°F32.2°C 60.3°F15.7°C 37% 3.1 mph W5.0 kmh W 6.9 mph11.1 kmh 29.74 in1007.1 mb 0.00 in0.0 mm 0.00 in0.0 mm 0.00 in0.0 mm
03:54 PM 89.1°F31.7°C 59.4°F15.2°C 37% 0.7 mph 1.1 kmh 5.4 mph8.7 kmh 29.74 in1007.1 mb 0.00 in0.0 mm 0.00 in0.0 mm 0.00 in0.0 mm
03:59 PM 91.0°F32.8°C 61.2°F16.2°C 37% 3.1 mph NE5.0 kmh NE 6.0 mph9.7 kmh 29.74 in1007.1 mb 0.00 in0.0 mm 0.00 in0.0 mm 0.00 in0.0 mm
04:04 PM 88.9°F31.6°C 58.5°F14.7°C 36% 3.1 mph 5.0 kmh 8.3 mph13.4 kmh 29.74 in1007.1 mb 0.00 in0.0 mm 0.00 in0.0 mm 0.00 in0.0 mm
04:09 PM 88.7°F31.5°C 59.0°F15.0°C 37% 1.6 mph NNE2.6 kmh NNE 4.5 mph7.2 kmh 29.73 in1006.8 mb 0.00 in0.0 mm 0.00 in0.0 mm 0.00 in0.0 mm
04:15 PM 90.0°F32.2°C 60.3°F15.7°C 37% 1.6 mph 2.6 kmh 3.8 mph6.1 kmh 29.73 in1006.8 mb 0.00 in0.0 mm 0.00 in0.0 mm 0.00 in0.0 mm
04:20 PM 90.9°F32.7°C 61.7°F16.5°C 38% 2.2 mph W3.5 kmh W 3.8 mph6.1 kmh 29.73 in1006.8 mb 0.00 in0.0 mm 0.00 in0.0 mm 0.00 in0.0 mm
04:25 PM 91.0°F32.8°C 60.4°F15.8°C 36% 2.2 mph SW3.5 kmh SW 6.9 mph11.1 kmh 29.73 in1006.8 mb 0.00 in0.0 mm 0.00 in0.0 mm 0.00 in0.0 mm
04:30 PM 90.9°F32.7°C 60.3°F15.7°C 36% 2.2 mph SW3.5 kmh SW 4.5 mph7.2 kmh 29.73 in1006.8 mb 0.00 in0.0 mm 0.00 in0.0 mm 0.00 in0.0 mm
04:35 PM 90.9°F32.7°C 60.3°F15.7°C 36% 4.5 mph SW7.2 kmh SW 6.0 mph9.7 kmh 29.74 in1007.1 mb 0.00 in0.0 mm 0.00 in0.0 mm 0.00 in0.0 mm
04:40 PM 90.0°F32.2°C 59.4°F15.2°C 36% 3.1 mph SW5.0 kmh SW 6.0 mph9.7 kmh 29.73 in1006.8 mb 0.00 in0.0 mm 0.00 in0.0 mm 0.00 in0.0 mm
04:46 PM 90.1°F32.3°C 59.5°F15.3°C 36% 1.6 mph W2.6 kmh W 4.5 mph7.2 kmh 29.73 in1006.8 mb 0.00 in0.0 mm 0.00 in0.0 mm 0.00 in0.0 mm
04:51 PM 91.4°F33.0°C 59.9°F15.5°C 35% 4.5 mph W7.2 kmh W 6.0 mph9.7 kmh 29.73 in1006.8 mb 0.00 in0.0 mm 0.00 in0.0 mm 0.00 in0.0 mm
04:56 PM 89.1°F31.7°C 57.9°F14.4°C 35% 3.1 mph NW5.0 kmh NW 6.9 mph11.1 kmh 29.73 in1006.8 mb 0.00 in0.0 mm 0.00 in0.0 mm 0.00 in0.0 mm
05:01 PM 90.0°F32.2°C 59.4°F15.2°C 36% 0.7 mph E1.1 kmh E 4.5 mph7.2 kmh 29.73 in1006.8 mb 0.00 in0.0 mm 0.00 in0.0 mm 0.00 in0.0 mm
05:06 PM 91.0°F32.8°C 60.4°F15.8°C 36% 4.5 mph W7.2 kmh W 7.6 mph12.2 kmh 29.73 in1006.8 mb 0.00 in0.0 mm 0.00 in0.0 mm 0.00 in0.0 mm
05:12 PM 89.1°F31.7°C 57.9°F14.4°C 35% 3.8 mph NW6.1 kmh NW 6.0 mph9.7 kmh 29.72 in1006.4 mb 0.00 in0.0 mm 0.00 in0.0 mm 0.00 in0.0 mm
05:17 PM 88.9°F31.6°C 57.7°F14.3°C 35% 2.2 mph 3.5 kmh 6.0 mph9.7 kmh 29.73 in1006.8 mb 0.00 in0.0 mm 0.00 in0.0 mm 0.00 in0.0 mm
05:22 PM 89.1°F31.7°C 58.6°F14.8°C 36% 1.6 mph 2.6 kmh 6.9 mph11.1 kmh 29.72 in1006.4 mb 0.00 in0.0 mm 0.00 in0.0 mm 0.00 in0.0 mm
05:27 PM 90.0°F32.2°C 59.4°F15.2°C 36% 2.2 mph 3.5 kmh 6.0 mph9.7 kmh 29.73 in1006.8 mb 0.00 in0.0 mm 0.00 in0.0 mm 0.00 in0.0 mm
05:32 PM 89.1°F31.7°C 57.9°F14.4°C 35% 3.1 mph 5.0 kmh 6.9 mph11.1 kmh 29.72 in1006.4 mb 0.00 in0.0 mm 0.00 in0.0 mm 0.00 in0.0 mm
05:37 PM 88.9°F31.6°C 58.5°F14.7°C 36% 2.2 mph W3.5 kmh W 5.4 mph8.7 kmh 29.72 in1006.4 mb 0.00 in0.0 mm 0.00 in0.0 mm 0.00 in0.0 mm
05:43 PM 88.9°F31.6°C 57.7°F14.3°C 35% 2.2 mph WSW3.5 kmh WSW 6.0 mph9.7 kmh 29.72 in1006.4 mb 0.00 in0.0 mm 0.00 in0.0 mm 0.00 in0.0 mm
05:48 PM 89.1°F31.7°C 57.0°F13.9°C 34% 4.5 mph W7.2 kmh W 6.0 mph9.7 kmh 29.72 in1006.4 mb 0.00 in0.0 mm 0.00 in0.0 mm 0.00 in0.0 mm
05:53 PM 89.1°F31.7°C 57.9°F14.4°C 35% 2.2 mph NW3.5 kmh NW 6.0 mph9.7 kmh 29.72 in1006.4 mb 0.00 in0.0 mm 0.00 in0.0 mm 0.00 in0.0 mm
05:58 PM 89.1°F31.7°C 57.9°F14.4°C 35% 2.2 mph W3.5 kmh W 4.5 mph7.2 kmh 29.72 in1006.4 mb 0.00 in0.0 mm 0.00 in0.0 mm 0.00 in0.0 mm
06:03 PM 90.0°F32.2°C 58.6°F14.8°C 35% 2.2 mph NW3.5 kmh NW 4.5 mph7.2 kmh 29.72 in1006.4 mb 0.00 in0.0 mm 0.00 in0.0 mm 0.00 in0.0 mm
06:08 PM 90.0°F32.2°C 58.6°F14.8°C 35% 3.1 mph W5.0 kmh W 4.5 mph7.2 kmh 29.72 in1006.4 mb 0.00 in0.0 mm 0.00 in0.0 mm 0.00 in0.0 mm
06:14 PM 90.0°F32.2°C 58.6°F14.8°C 35% 3.1 mph SW5.0 kmh SW 4.5 mph7.2 kmh 29.72 in1006.4 mb 0.00 in0.0 mm 0.00 in0.0 mm 0.00 in0.0 mm
06:19 PM 90.0°F32.2°C 58.6°F14.8°C 35% 0.7 mph 1.1 kmh 3.8 mph6.1 kmh 29.72 in1006.4 mb 0.00 in0.0 mm 0.00 in0.0 mm 0.00 in0.0 mm
06:24 PM 90.5°F32.5°C 59.2°F15.1°C 35% 2.2 mph W3.5 kmh W 3.1 mph5.0 kmh 29.72 in1006.4 mb 0.00 in0.0 mm 0.00 in0.0 mm 0.00 in0.0 mm
06:29 PM 91.9°F33.3°C 59.5°F15.3°C 34% 0.7 mph 1.1 kmh 3.1 mph5.0 kmh 29.72 in1006.4 mb 0.00 in0.0 mm 0.00 in0.0 mm 0.00 in0.0 mm
06:34 PM 90.9°F32.7°C 58.6°F14.8°C 34% 2.2 mph E3.5 kmh E 5.4 mph8.7 kmh 29.72 in1006.4 mb 0.00 in0.0 mm 0.00 in0.0 mm 0.00 in0.0 mm
06:39 PM 89.1°F31.7°C 57.0°F13.9°C 34% Calm Calm 3.1 mph5.0 kmh 29.72 in1006.4 mb 0.00 in0.0 mm 0.00 in0.0 mm 0.00 in0.0 mm
06:45 PM 89.1°F31.7°C 57.0°F13.9°C 34% 3.8 mph NE6.1 kmh NE 5.4 mph8.7 kmh 29.72 in1006.4 mb 0.00 in0.0 mm 0.00 in0.0 mm 0.00 in0.0 mm
06:50 PM 88.7°F31.5°C 56.7°F13.7°C 34% 2.2 mph NE3.5 kmh NE 5.4 mph8.7 kmh 29.72 in1006.4 mb 0.00 in0.0 mm 0.00 in0.0 mm 0.00 in0.0 mm
06:55 PM 88.3°F31.3°C 57.2°F14.0°C 35% Calm Calm 3.8 mph6.1 kmh 29.72 in1006.4 mb 0.00 in0.0 mm 0.00 in0.0 mm 0.00 in0.0 mm
07:00 PM 88.9°F31.6°C 56.8°F13.8°C 34% 2.2 mph NE3.5 kmh NE 4.5 mph7.2 kmh 29.72 in1006.4 mb 0.00 in0.0 mm 0.00 in0.0 mm 0.00 in0.0 mm
07:05 PM 87.8°F31.0°C 56.7°F13.7°C 35% 1.6 mph ESE2.6 kmh ESE 4.5 mph7.2 kmh 29.73 in1006.8 mb 0.00 in0.0 mm 0.00 in0.0 mm 0.00 in0.0 mm
07:10 PM 87.6°F30.9°C 58.1°F14.5°C 37% 0.7 mph WNW1.1 kmh WNW 3.8 mph6.1 kmh 29.72 in1006.4 mb 0.00 in0.0 mm 0.00 in0.0 mm 0.00 in0.0 mm
07:16 PM 87.4°F30.8°C 57.9°F14.4°C 37% 3.1 mph 5.0 kmh 4.5 mph7.2 kmh 29.73 in1006.8 mb 0.00 in0.0 mm 0.00 in0.0 mm 0.00 in0.0 mm
07:21 PM 86.9°F30.5°C 59.7°F15.4°C 40% 2.2 mph 3.5 kmh 4.5 mph7.2 kmh 29.73 in1006.8 mb 0.00 in0.0 mm 0.00 in0.0 mm 0.00 in0.0 mm
07:26 PM 86.5°F30.3°C 60.1°F15.6°C 41% 3.1 mph 5.0 kmh 5.4 mph8.7 kmh 29.73 in1006.8 mb 0.00 in0.0 mm 0.00 in0.0 mm 0.00 in0.0 mm
07:31 PM 86.0°F30.0°C 60.3°F15.7°C 42% 2.2 mph 3.5 kmh 4.5 mph7.2 kmh 29.73 in1006.8 mb 0.00 in0.0 mm 0.00 in0.0 mm 0.00 in0.0 mm
07:36 PM 85.6°F29.8°C 61.2°F16.2°C 44% 3.8 mph E6.1 kmh E 4.5 mph7.2 kmh 29.73 in1006.8 mb 0.00 in0.0 mm 0.00 in0.0 mm 0.00 in0.0 mm
07:41 PM 84.9°F29.4°C 60.6°F15.9°C 44% 3.8 mph E6.1 kmh E 5.4 mph8.7 kmh 29.73 in1006.8 mb 0.00 in0.0 mm 0.00 in0.0 mm 0.00 in0.0 mm
07:47 PM 84.2°F29.0°C 60.6°F15.9°C 45% 2.2 mph E3.5 kmh E 4.5 mph7.2 kmh 29.73 in1006.8 mb 0.00 in0.0 mm 0.00 in0.0 mm 0.00 in0.0 mm
07:52 PM 83.7°F28.7°C 61.3°F16.3°C 47% 2.2 mph NE3.5 kmh NE 3.8 mph6.1 kmh 29.73 in1006.8 mb 0.00 in0.0 mm 0.00 in0.0 mm 0.00 in0.0 mm
07:57 PM 83.1°F28.4°C 60.8°F16.0°C 47% 0.7 mph NE1.1 kmh NE 3.8 mph6.1 kmh 29.74 in1007.1 mb 0.00 in0.0 mm 0.00 in0.0 mm 0.00 in0.0 mm
08:02 PM 82.9°F28.3°C 61.2°F16.2°C 48% 0.7 mph NE1.1 kmh NE 2.2 mph3.5 kmh 29.73 in1006.8 mb 0.00 in0.0 mm 0.00 in0.0 mm 0.00 in0.0 mm
08:07 PM 82.0°F27.8°C 61.5°F16.4°C 50% 1.6 mph NE2.6 kmh NE 3.1 mph5.0 kmh 29.74 in1007.1 mb 0.00 in0.0 mm 0.00 in0.0 mm 0.00 in0.0 mm
08:12 PM 81.1°F27.3°C 61.3°F16.3°C 51% 1.6 mph E2.6 kmh E 3.1 mph5.0 kmh 29.74 in1007.1 mb 0.00 in0.0 mm 0.00 in0.0 mm 0.00 in0.0 mm
08:18 PM 80.1°F26.7°C 60.8°F16.0°C 52% 0.7 mph NE1.1 kmh NE 3.1 mph5.0 kmh 29.74 in1007.1 mb 0.00 in0.0 mm 0.00 in0.0 mm 0.00 in0.0 mm
08:23 PM 79.3°F26.3°C 60.3°F15.7°C 52% 0.7 mph NE1.1 kmh NE 3.1 mph5.0 kmh 29.75 in1007.5 mb 0.00 in0.0 mm 0.00 in0.0 mm 0.00 in0.0 mm
08:28 PM 79.0°F26.1°C 59.9°F15.5°C 52% 1.6 mph E2.6 kmh E 3.1 mph5.0 kmh 29.75 in1007.5 mb 0.00 in0.0 mm 0.00 in0.0 mm 0.00 in0.0 mm
08:33 PM 78.6°F25.9°C 60.1°F15.6°C 53% 1.6 mph NE2.6 kmh NE 2.2 mph3.5 kmh 29.75 in1007.5 mb 0.00 in0.0 mm 0.00 in0.0 mm 0.00 in0.0 mm
08:38 PM 78.4°F25.8°C 59.9°F15.5°C 53% 1.6 mph NE2.6 kmh NE 3.8 mph6.1 kmh 29.75 in1007.5 mb 0.00 in0.0 mm 0.00 in0.0 mm 0.00 in0.0 mm
08:43 PM 77.9°F25.5°C 59.4°F15.2°C 53% 0.7 mph E1.1 kmh E 2.2 mph3.5 kmh 29.75 in1007.5 mb 0.00 in0.0 mm 0.00 in0.0 mm 0.00 in0.0 mm
08:49 PM 77.9°F25.5°C 59.4°F15.2°C 53% 0.7 mph E1.1 kmh E 2.2 mph3.5 kmh 29.76 in1007.8 mb 0.00 in0.0 mm 0.00 in0.0 mm 0.00 in0.0 mm
08:54 PM 77.9°F25.5°C 59.4°F15.2°C 53% Calm Calm 2.2 mph3.5 kmh 29.76 in1007.8 mb 0.00 in0.0 mm 0.00 in0.0 mm 0.00 in0.0 mm
08:59 PM 77.7°F25.4°C 59.2°F15.1°C 53% Calm Calm 1.6 mph2.6 kmh 29.77 in1008.1 mb 0.00 in0.0 mm 0.00 in0.0 mm 0.00 in0.0 mm
09:04 PM 77.7°F25.4°C 59.2°F15.1°C 53% Calm Calm 1.6 mph2.6 kmh 29.77 in1008.1 mb 0.00 in0.0 mm 0.00 in0.0 mm 0.00 in0.0 mm
09:09 PM 77.4°F25.2°C 59.4°F15.2°C 54% Calm Calm 0.7 mph1.1 kmh 29.77 in1008.1 mb 0.00 in0.0 mm 0.00 in0.0 mm 0.00 in0.0 mm
09:14 PM 77.0°F25.0°C 60.1°F15.6°C 56% 0.7 mph SW1.1 kmh SW 1.6 mph2.6 kmh 29.78 in1008.5 mb 0.00 in0.0 mm 0.00 in0.0 mm 0.00 in0.0 mm
09:25 PM 76.1°F24.5°C 60.8°F16.0°C 59% Calm Calm -- 29.78 in1008.5 mb 0.00 in0.0 mm 0.00 in0.0 mm 0.00 in0.0 mm
09:30 PM 75.7°F24.3°C 60.8°F16.0°C 60% Calm Calm -- 29.78 in1008.5 mb 0.00 in0.0 mm 0.00 in0.0 mm 0.00 in0.0 mm
09:35 PM 75.6°F24.2°C 60.6°F15.9°C 60% Calm Calm -- 29.79 in1008.8 mb 0.00 in0.0 mm 0.00 in0.0 mm 0.00 in0.0 mm
09:40 PM 75.4°F24.1°C 61.0°F16.1°C 61% Calm Calm 1.6 mph2.6 kmh 29.79 in1008.8 mb 0.00 in0.0 mm 0.00 in0.0 mm 0.00 in0.0 mm
09:45 PM 75.0°F23.9°C 61.2°F16.2°C 62% Calm Calm 1.6 mph2.6 kmh 29.79 in1008.8 mb 0.00 in0.0 mm 0.00 in0.0 mm 0.00 in0.0 mm
09:51 PM 74.8°F23.8°C 61.0°F16.1°C 62% Calm Calm 0.7 mph1.1 kmh 29.80 in1009.1 mb 0.00 in0.0 mm 0.00 in0.0 mm 0.00 in0.0 mm
09:56 PM 74.5°F23.6°C 61.0°F16.1°C 63% Calm Calm 0.7 mph1.1 kmh 29.80 in1009.1 mb 0.00 in0.0 mm 0.00 in0.0 mm 0.00 in0.0 mm
10:01 PM 74.1°F23.4°C 60.8°F16.0°C 63% Calm Calm 1.6 mph2.6 kmh 29.80 in1009.1 mb 0.00 in0.0 mm 0.00 in0.0 mm 0.00 in0.0 mm
10:06 PM 74.1°F23.4°C 60.8°F16.0°C 63% 0.7 mph NE1.1 kmh NE 5.4 mph8.7 kmh 29.80 in1009.1 mb 0.00 in0.0 mm 0.00 in0.0 mm 0.00 in0.0 mm
10:11 PM 74.5°F23.6°C 60.6°F15.9°C 62% 2.2 mph 3.5 kmh 3.1 mph5.0 kmh 29.80 in1009.1 mb 0.00 in0.0 mm 0.00 in0.0 mm 0.00 in0.0 mm
10:16 PM 74.1°F23.4°C 60.3°F15.7°C 62% 1.6 mph E2.6 kmh E 3.1 mph5.0 kmh 29.81 in1009.5 mb 0.00 in0.0 mm 0.00 in0.0 mm 0.00 in0.0 mm
10:22 PM 74.1°F23.4°C 60.8°F16.0°C 63% 1.6 mph E2.6 kmh E 3.1 mph5.0 kmh 29.81 in1009.5 mb 0.00 in0.0 mm 0.00 in0.0 mm 0.00 in0.0 mm
10:27 PM 74.1°F23.4°C 60.3°F15.7°C 62% 1.6 mph NE2.6 kmh NE 3.1 mph5.0 kmh 29.82 in1009.8 mb 0.00 in0.0 mm 0.00 in0.0 mm 0.00 in0.0 mm
10:32 PM 74.3°F23.5°C 60.4°F15.8°C 62% 1.6 mph E2.6 kmh E 2.2 mph3.5 kmh 29.81 in1009.5 mb 0.00 in0.0 mm 0.00 in0.0 mm 0.00 in0.0 mm
10:37 PM 74.5°F23.6°C 60.1°F15.6°C 61% 0.7 mph NE1.1 kmh NE 2.2 mph3.5 kmh 29.81 in1009.5 mb 0.00 in0.0 mm 0.00 in0.0 mm 0.00 in0.0 mm
10:42 PM 74.3°F23.5°C 59.9°F15.5°C 61% Calm Calm 2.2 mph3.5 kmh 29.82 in1009.8 mb 0.00 in0.0 mm 0.00 in0.0 mm 0.00 in0.0 mm
10:48 PM 73.9°F23.3°C 59.7°F15.4°C 61% Calm Calm 1.6 mph2.6 kmh 29.82 in1009.8 mb 0.00 in0.0 mm 0.00 in0.0 mm 0.00 in0.0 mm
10:53 PM 73.8°F23.2°C 59.5°F15.3°C 61% 0.7 mph SW1.1 kmh SW 1.6 mph2.6 kmh 29.83 in1010.2 mb 0.00 in0.0 mm 0.00 in0.0 mm 0.00 in0.0 mm
10:58 PM 73.4°F23.0°C 60.1°F15.6°C 63% Calm Calm 1.6 mph2.6 kmh 29.83 in1010.2 mb 0.00 in0.0 mm 0.00 in0.0 mm 0.00 in0.0 mm
11:03 PM 72.9°F22.7°C 59.9°F15.5°C 64% Calm Calm 0.7 mph1.1 kmh 29.83 in1010.2 mb 0.00 in0.0 mm 0.00 in0.0 mm 0.00 in0.0 mm
11:08 PM 72.3°F22.4°C 59.9°F15.5°C 65% 0.7 mph NW1.1 kmh NW 1.6 mph2.6 kmh 29.83 in1010.2 mb 0.00 in0.0 mm 0.00 in0.0 mm 0.00 in0.0 mm
11:13 PM 72.1°F22.3°C 60.1°F15.6°C 66% Calm Calm 1.6 mph2.6 kmh 29.83 in1010.2 mb 0.00 in0.0 mm 0.00 in0.0 mm 0.00 in0.0 mm
11:19 PM 71.6°F22.0°C 60.1°F15.6°C 67% Calm Calm 1.6 mph2.6 kmh 29.83 in1010.2 mb 0.00 in0.0 mm 0.00 in0.0 mm 0.00 in0.0 mm
11:24 PM 71.4°F21.9°C 60.3°F15.7°C 68% Calm Calm 0.7 mph1.1 kmh 29.84 in1010.5 mb 0.00 in0.0 mm 0.00 in0.0 mm 0.00 in0.0 mm
11:29 PM 71.2°F21.8°C 60.1°F15.6°C 68% Calm Calm 1.6 mph2.6 kmh 29.83 in1010.2 mb 0.00 in0.0 mm 0.00 in0.0 mm 0.00 in0.0 mm
11:34 PM 71.1°F21.7°C 59.9°F15.5°C 68% Calm Calm 0.7 mph1.1 kmh 29.84 in1010.5 mb 0.00 in0.0 mm 0.00 in0.0 mm 0.00 in0.0 mm
11:39 PM 70.9°F21.6°C 59.7°F15.4°C 68% 0.7 mph W1.1 kmh W 1.6 mph2.6 kmh 29.84 in1010.5 mb 0.00 in0.0 mm 0.00 in0.0 mm 0.00 in0.0 mm
11:44 PM 70.7°F21.5°C 59.5°F15.3°C 68% 0.7 mph NW1.1 kmh NW 2.2 mph3.5 kmh 29.83 in1010.2 mb 0.00 in0.0 mm 0.00 in0.0 mm 0.00 in0.0 mm
11:50 PM 70.3°F21.3°C 59.7°F15.4°C 69% Calm Calm 2.2 mph3.5 kmh 29.84 in1010.5 mb 0.00 in0.0 mm 0.00 in0.0 mm 0.00 in0.0 mm
11:55 PM 70.2°F21.2°C 59.5°F15.3°C 69% 0.7 mph SW1.1 kmh SW 1.6 mph2.6 kmh 29.84 in1010.5 mb 0.00 in0.0 mm 0.00 in0.0 mm 0.00 in0.0 mm